sensor_id;sensor_type;location;lat;lon;timestamp;temperature;humidity
47310;DHT22;33046;52.270;6.832;2023-08-08T00:01:36;17.50;97.10
47310;DHT22;33046;52.270;6.832;2023-08-08T00:03:42;17.40;97.70
47310;DHT22;33046;52.270;6.832;2023-08-08T00:05:51;17.40;97.70
47310;DHT22;33046;52.270;6.832;2023-08-08T00:07:58;17.40;97.90
47310;DHT22;33046;52.270;6.832;2023-08-08T00:10:05;17.50;97.80
47310;DHT22;33046;52.270;6.832;2023-08-08T00:12:13;17.50;97.80
47310;DHT22;33046;52.270;6.832;2023-08-08T00:14:19;17.50;97.90
47310;DHT22;33046;52.270;6.832;2023-08-08T00:16:26;17.50;98.00
47310;DHT22;33046;52.270;6.832;2023-08-08T00:18:33;17.50;97.90
47310;DHT22;33046;52.270;6.832;2023-08-08T00:20:40;17.50;98.30
47310;DHT22;33046;52.270;6.832;2023-08-08T00:22:48;17.50;98.30
47310;DHT22;33046;52.270;6.832;2023-08-08T00:24:55;17.50;98.20
47310;DHT22;33046;52.270;6.832;2023-08-08T00:27:02;17.50;98.20
47310;DHT22;33046;52.270;6.832;2023-08-08T00:29:10;17.50;98.30
47310;DHT22;33046;52.270;6.832;2023-08-08T00:31:18;17.50;98.50
47310;DHT22;33046;52.270;6.832;2023-08-08T00:33:26;17.50;98.40
47310;DHT22;33046;52.270;6.832;2023-08-08T00:35:32;17.50;98.40
47310;DHT22;33046;52.270;6.832;2023-08-08T00:37:39;17.50;98.50
47310;DHT22;33046;52.270;6.832;2023-08-08T00:39:48;17.50;98.60
47310;DHT22;33046;52.270;6.832;2023-08-08T00:41:54;17.50;98.50
47310;DHT22;33046;52.270;6.832;2023-08-08T00:44:02;17.40;98.70
47310;DHT22;33046;52.270;6.832;2023-08-08T00:46:09;17.50;98.70
47310;DHT22;33046;52.270;6.832;2023-08-08T00:48:16;17.50;98.60
47310;DHT22;33046;52.270;6.832;2023-08-08T00:50:23;17.50;98.60
47310;DHT22;33046;52.270;6.832;2023-08-08T00:52:30;17.50;98.60
47310;DHT22;33046;52.270;6.832;2023-08-08T00:54:37;17.50;98.40
47310;DHT22;33046;52.270;6.832;2023-08-08T00:56:46;17.50;98.30
47310;DHT22;33046;52.270;6.832;2023-08-08T00:58:53;17.50;98.30
47310;DHT22;33046;52.270;6.832;2023-08-08T01:01:00;17.40;98.50
47310;DHT22;33046;52.270;6.832;2023-08-08T01:03:07;17.40;98.50
47310;DHT22;33046;52.270;6.832;2023-08-08T01:05:14;17.40;98.70
47310;DHT22;33046;52.270;6.832;2023-08-08T01:07:33;17.40;98.60
47310;DHT22;33046;52.270;6.832;2023-08-08T01:09:46;17.40;98.50
47310;DHT22;33046;52.270;6.832;2023-08-08T01:11:56;17.40;98.70
47310;DHT22;33046;52.270;6.832;2023-08-08T01:14:06;17.30;98.80
47310;DHT22;33046;52.270;6.832;2023-08-08T01:16:15;17.40;98.80
47310;DHT22;33046;52.270;6.832;2023-08-08T01:18:22;17.40;98.80
47310;DHT22;33046;52.270;6.832;2023-08-08T01:20:29;17.40;98.80
47310;DHT22;33046;52.270;6.832;2023-08-08T01:22:40;17.40;99.00
47310;DHT22;33046;52.270;6.832;2023-08-08T01:24:51;17.40;98.80
47310;DHT22;33046;52.270;6.832;2023-08-08T01:26:59;17.40;99.00
47310;DHT22;33046;52.270;6.832;2023-08-08T01:29:07;17.40;99.10
47310;DHT22;33046;52.270;6.832;2023-08-08T01:31:14;17.40;98.90
47310;DHT22;33046;52.270;6.832;2023-08-08T01:33:21;17.40;99.00
47310;DHT22;33046;52.270;6.832;2023-08-08T01:35:30;17.40;99.10
47310;DHT22;33046;52.270;6.832;2023-08-08T01:37:43;17.40;99.20
47310;DHT22;33046;52.270;6.832;2023-08-08T01:39:53;17.40;99.10
47310;DHT22;33046;52.270;6.832;2023-08-08T01:42:01;17.40;99.20
47310;DHT22;33046;52.270;6.832;2023-08-08T01:44:09;17.40;99.20
47310;DHT22;33046;52.270;6.832;2023-08-08T01:46:16;17.30;99.50
47310;DHT22;33046;52.270;6.832;2023-08-08T01:48:23;17.40;99.40
47310;DHT22;33046;52.270;6.832;2023-08-08T01:50:31;17.40;99.40
47310;DHT22;33046;52.270;6.832;2023-08-08T01:52:38;17.40;99.60
47310;DHT22;33046;52.270;6.832;2023-08-08T01:54:45;17.40;99.50
47310;DHT22;33046;52.270;6.832;2023-08-08T01:56:53;17.40;99.50
47310;DHT22;33046;52.270;6.832;2023-08-08T01:59:01;17.40;99.50
47310;DHT22;33046;52.270;6.832;2023-08-08T02:01:08;17.40;99.50
47310;DHT22;33046;52.270;6.832;2023-08-08T02:03:15;17.40;99.60
47310;DHT22;33046;52.270;6.832;2023-08-08T02:05:22;17.40;99.50
47310;DHT22;33046;52.270;6.832;2023-08-08T02:07:29;17.40;99.50
47310;DHT22;33046;52.270;6.832;2023-08-08T02:09:36;17.40;99.60
47310;DHT22;33046;52.270;6.832;2023-08-08T02:11:43;17.40;99.60
47310;DHT22;33046;52.270;6.832;2023-08-08T02:13:51;17.40;99.70
47310;DHT22;33046;52.270;6.832;2023-08-08T02:15:58;17.40;99.60
47310;DHT22;33046;52.270;6.832;2023-08-08T02:18:06;17.40;99.90
47310;DHT22;33046;52.270;6.832;2023-08-08T02:20:13;17.40;99.90
47310;DHT22;33046;52.270;6.832;2023-08-08T02:22:20;17.40;99.90
47310;DHT22;33046;52.270;6.832;2023-08-08T02:24:27;17.40;99.90
47310;DHT22;33046;52.270;6.832;2023-08-08T02:26:35;17.40;99.90
47310;DHT22;33046;52.270;6.832;2023-08-08T02:28:45;17.40;99.90
47310;DHT22;33046;52.270;6.832;2023-08-08T02:30:54;17.30;99.90
47310;DHT22;33046;52.270;6.832;2023-08-08T02:33:01;17.40;99.90
47310;DHT22;33046;52.270;6.832;2023-08-08T02:35:08;17.30;99.90
47310;DHT22;33046;52.270;6.832;2023-08-08T02:37:15;17.30;99.90
47310;DHT22;33046;52.270;6.832;2023-08-08T02:39:22;17.30;99.90
47310;DHT22;33046;52.270;6.832;2023-08-08T02:41:28;17.30;99.90
47310;DHT22;33046;52.270;6.832;2023-08-08T02:43:36;17.30;99.90
47310;DHT22;33046;52.270;6.832;2023-08-08T02:45:43;17.30;99.90
47310;DHT22;33046;52.270;6.832;2023-08-08T02:47:51;17.30;99.90
47310;DHT22;33046;52.270;6.832;2023-08-08T02:49:58;17.40;99.90
47310;DHT22;33046;52.270;6.832;2023-08-08T02:52:06;17.40;99.90
47310;DHT22;33046;52.270;6.832;2023-08-08T02:54:15;17.40;99.90
47310;DHT22;33046;52.270;6.832;2023-08-08T02:56:23;17.30;99.90
47310;DHT22;33046;52.270;6.832;2023-08-08T02:58:31;17.30;99.90
47310;DHT22;33046;52.270;6.832;2023-08-08T03:00:39;17.30;99.90
47310;DHT22;33046;52.270;6.832;2023-08-08T03:02:50;17.40;99.90
47310;DHT22;33046;52.270;6.832;2023-08-08T03:04:57;17.40;99.90
47310;DHT22;33046;52.270;6.832;2023-08-08T03:07:05;17.30;99.90
47310;DHT22;33046;52.270;6.832;2023-08-08T03:09:14;17.40;99.90
47310;DHT22;33046;52.270;6.832;2023-08-08T03:11:22;17.40;99.90
47310;DHT22;33046;52.270;6.832;2023-08-08T03:13:29;17.30;99.90
47310;DHT22;33046;52.270;6.832;2023-08-08T03:15:36;17.30;99.90
47310;DHT22;33046;52.270;6.832;2023-08-08T03:17:45;17.30;99.90
47310;DHT22;33046;52.270;6.832;2023-08-08T03:19:53;17.30;99.90
47310;DHT22;33046;52.270;6.832;2023-08-08T03:22:02;17.30;99.90
47310;DHT22;33046;52.270;6.832;2023-08-08T03:24:09;17.30;99.90
47310;DHT22;33046;52.270;6.832;2023-08-08T03:26:16;17.30;99.90
47310;DHT22;33046;52.270;6.832;2023-08-08T03:28:24;17.30;99.90
47310;DHT22;33046;52.270;6.832;2023-08-08T03:30:33;17.20;99.90
47310;DHT22;33046;52.270;6.832;2023-08-08T03:32:43;17.20;99.90
47310;DHT22;33046;52.270;6.832;2023-08-08T03:34:50;17.20;99.90
47310;DHT22;33046;52.270;6.832;2023-08-08T03:36:59;17.20;99.90
47310;DHT22;33046;52.270;6.832;2023-08-08T03:39:06;17.30;99.90
47310;DHT22;33046;52.270;6.832;2023-08-08T03:41:13;17.30;99.90
47310;DHT22;33046;52.270;6.832;2023-08-08T03:43:20;17.30;99.90
47310;DHT22;33046;52.270;6.832;2023-08-08T03:45:28;17.30;99.90
47310;DHT22;33046;52.270;6.832;2023-08-08T03:47:35;17.20;99.90
47310;DHT22;33046;52.270;6.832;2023-08-08T03:49:42;17.20;99.90
47310;DHT22;33046;52.270;6.832;2023-08-08T03:51:48;17.20;99.90
47310;DHT22;33046;52.270;6.832;2023-08-08T03:53:57;17.20;99.90
47310;DHT22;33046;52.270;6.832;2023-08-08T03:56:03;17.30;99.90
47310;DHT22;33046;52.270;6.832;2023-08-08T03:58:10;17.20;99.90
47310;DHT22;33046;52.270;6.832;2023-08-08T04:00:18;17.20;99.90
47310;DHT22;33046;52.270;6.832;2023-08-08T04:02:25;17.20;99.90
47310;DHT22;33046;52.270;6.832;2023-08-08T04:04:32;17.10;99.90
47310;DHT22;33046;52.270;6.832;2023-08-08T04:06:39;17.20;99.90
47310;DHT22;33046;52.270;6.832;2023-08-08T04:08:47;17.20;99.90
47310;DHT22;33046;52.270;6.832;2023-08-08T04:10:55;17.20;99.90
47310;DHT22;33046;52.270;6.832;2023-08-08T04:13:02;17.20;99.90
47310;DHT22;33046;52.270;6.832;2023-08-08T04:15:09;17.20;99.90
47310;DHT22;33046;52.270;6.832;2023-08-08T04:17:16;17.20;99.90
47310;DHT22;33046;52.270;6.832;2023-08-08T04:19:23;17.20;99.90
47310;DHT22;33046;52.270;6.832;2023-08-08T04:21:30;17.10;99.90
47310;DHT22;33046;52.270;6.832;2023-08-08T04:23:37;17.10;99.90
47310;DHT22;33046;52.270;6.832;2023-08-08T04:25:44;17.20;99.90
47310;DHT22;33046;52.270;6.832;2023-08-08T04:27:52;17.20;99.90
47310;DHT22;33046;52.270;6.832;2023-08-08T04:29:59;17.10;99.90
47310;DHT22;33046;52.270;6.832;2023-08-08T04:32:06;17.20;99.90
47310;DHT22;33046;52.270;6.832;2023-08-08T04:34:13;17.20;99.90
47310;DHT22;33046;52.270;6.832;2023-08-08T04:36:20;17.10;99.90
47310;DHT22;33046;52.270;6.832;2023-08-08T04:38:27;17.10;99.90
47310;DHT22;33046;52.270;6.832;2023-08-08T04:40:34;17.20;99.90
47310;DHT22;33046;52.270;6.832;2023-08-08T04:42:41;17.20;99.90
47310;DHT22;33046;52.270;6.832;2023-08-08T04:44:49;17.20;99.90
47310;DHT22;33046;52.270;6.832;2023-08-08T04:46:57;17.20;99.90
47310;DHT22;33046;52.270;6.832;2023-08-08T04:49:04;17.20;99.90
47310;DHT22;33046;52.270;6.832;2023-08-08T04:51:10;17.30;99.90
47310;DHT22;33046;52.270;6.832;2023-08-08T04:53:17;17.30;99.90
47310;DHT22;33046;52.270;6.832;2023-08-08T04:55:25;17.20;99.90
47310;DHT22;33046;52.270;6.832;2023-08-08T04:57:32;17.20;99.90
47310;DHT22;33046;52.270;6.832;2023-08-08T04:59:38;17.30;99.90
47310;DHT22;33046;52.270;6.832;2023-08-08T05:01:47;17.30;99.90
47310;DHT22;33046;52.270;6.832;2023-08-08T05:03:53;17.30;99.90
47310;DHT22;33046;52.270;6.832;2023-08-08T05:06:01;17.30;99.90
47310;DHT22;33046;52.270;6.832;2023-08-08T05:08:08;17.40;99.90
47310;DHT22;33046;52.270;6.832;2023-08-08T05:10:15;17.30;99.90
47310;DHT22;33046;52.270;6.832;2023-08-08T05:12:22;17.40;99.90
47310;DHT22;33046;52.270;6.832;2023-08-08T05:14:29;17.40;99.90
47310;DHT22;33046;52.270;6.832;2023-08-08T05:16:36;17.40;99.90
47310;DHT22;33046;52.270;6.832;2023-08-08T05:18:44;17.40;99.90
47310;DHT22;33046;52.270;6.832;2023-08-08T05:20:51;17.50;99.90
47310;DHT22;33046;52.270;6.832;2023-08-08T05:22:58;17.30;99.90
47310;DHT22;33046;52.270;6.832;2023-08-08T05:25:06;17.40;99.90
47310;DHT22;33046;52.270;6.832;2023-08-08T05:27:13;17.40;99.90
47310;DHT22;33046;52.270;6.832;2023-08-08T05:29:20;17.50;99.90
47310;DHT22;33046;52.270;6.832;2023-08-08T05:31:27;17.50;99.90
47310;DHT22;33046;52.270;6.832;2023-08-08T05:33:33;17.50;99.90
47310;DHT22;33046;52.270;6.832;2023-08-08T05:35:42;17.60;99.90
47310;DHT22;33046;52.270;6.832;2023-08-08T05:37:49;17.60;99.90
47310;DHT22;33046;52.270;6.832;2023-08-08T05:39:56;17.60;99.90
47310;DHT22;33046;52.270;6.832;2023-08-08T05:42:03;17.60;99.90
47310;DHT22;33046;52.270;6.832;2023-08-08T05:44:10;17.70;99.90
47310;DHT22;33046;52.270;6.832;2023-08-08T05:46:17;17.60;99.90
47310;DHT22;33046;52.270;6.832;2023-08-08T05:48:23;17.60;99.90
47310;DHT22;33046;52.270;6.832;2023-08-08T05:50:30;17.60;99.90
47310;DHT22;33046;52.270;6.832;2023-08-08T05:52:38;17.70;99.90
47310;DHT22;33046;52.270;6.832;2023-08-08T05:54:45;17.70;99.90
47310;DHT22;33046;52.270;6.832;2023-08-08T05:56:52;17.70;99.90
47310;DHT22;33046;52.270;6.832;2023-08-08T05:58:59;17.70;99.90
47310;DHT22;33046;52.270;6.832;2023-08-08T06:01:06;17.70;99.90
47310;DHT22;33046;52.270;6.832;2023-08-08T06:03:13;17.80;99.90
47310;DHT22;33046;52.270;6.832;2023-08-08T06:05:21;17.70;99.90
47310;DHT22;33046;52.270;6.832;2023-08-08T06:07:28;17.60;99.90
47310;DHT22;33046;52.270;6.832;2023-08-08T06:09:37;17.70;99.90
47310;DHT22;33046;52.270;6.832;2023-08-08T06:11:44;17.70;99.90
47310;DHT22;33046;52.270;6.832;2023-08-08T06:13:50;17.70;99.90
47310;DHT22;33046;52.270;6.832;2023-08-08T06:15:57;17.70;99.90
47310;DHT22;33046;52.270;6.832;2023-08-08T06:18:05;17.80;99.90
47310;DHT22;33046;52.270;6.832;2023-08-08T06:20:12;17.70;99.90
47310;DHT22;33046;52.270;6.832;2023-08-08T06:22:19;17.80;99.90
47310;DHT22;33046;52.270;6.832;2023-08-08T06:24:27;17.90;99.90
47310;DHT22;33046;52.270;6.832;2023-08-08T06:26:35;17.90;99.90
47310;DHT22;33046;52.270;6.832;2023-08-08T06:28:42;18.00;99.90
47310;DHT22;33046;52.270;6.832;2023-08-08T06:30:48;18.00;99.90
47310;DHT22;33046;52.270;6.832;2023-08-08T06:32:55;18.20;99.90
47310;DHT22;33046;52.270;6.832;2023-08-08T06:35:03;18.20;99.90
47310;DHT22;33046;52.270;6.832;2023-08-08T06:37:10;18.30;99.90
47310;DHT22;33046;52.270;6.832;2023-08-08T06:39:17;18.50;99.80
47310;DHT22;33046;52.270;6.832;2023-08-08T06:41:24;18.60;99.70
47310;DHT22;33046;52.270;6.832;2023-08-08T06:43:33;18.80;99.20
47310;DHT22;33046;52.270;6.832;2023-08-08T06:45:39;19.00;99.10
47310;DHT22;33046;52.270;6.832;2023-08-08T06:47:46;19.10;98.40
47310;DHT22;33046;52.270;6.832;2023-08-08T06:49:53;19.40;98.10
47310;DHT22;33046;52.270;6.832;2023-08-08T06:52:00;19.60;97.70
47310;DHT22;33046;52.270;6.832;2023-08-08T06:54:07;19.80;97.00
47310;DHT22;33046;52.270;6.832;2023-08-08T06:56:14;20.00;96.40
47310;DHT22;33046;52.270;6.832;2023-08-08T06:58:21;19.90;96.50
47310;DHT22;33046;52.270;6.832;2023-08-08T07:00:29;20.00;96.40
47310;DHT22;33046;52.270;6.832;2023-08-08T07:02:36;20.10;96.00
47310;DHT22;33046;52.270;6.832;2023-08-08T07:04:43;20.20;95.90
47310;DHT22;33046;52.270;6.832;2023-08-08T07:06:50;20.10;95.80
47310;DHT22;33046;52.270;6.832;2023-08-08T07:08:57;20.10;95.70
47310;DHT22;33046;52.270;6.832;2023-08-08T07:11:03;20.30;95.50
47310;DHT22;33046;52.270;6.832;2023-08-08T07:13:10;20.50;95.10
47310;DHT22;33046;52.270;6.832;2023-08-08T07:15:18;20.80;94.80
47310;DHT22;33046;52.270;6.832;2023-08-08T07:17:26;20.70;94.10
47310;DHT22;33046;52.270;6.832;2023-08-08T07:19:33;20.60;94.20
47310;DHT22;33046;52.270;6.832;2023-08-08T07:21:40;20.60;94.00
47310;DHT22;33046;52.270;6.832;2023-08-08T07:23:47;20.70;94.00
47310;DHT22;33046;52.270;6.832;2023-08-08T07:25:54;20.60;94.00
47310;DHT22;33046;52.270;6.832;2023-08-08T07:28:01;20.80;93.90
47310;DHT22;33046;52.270;6.832;2023-08-08T07:30:08;20.80;93.80
47310;DHT22;33046;52.270;6.832;2023-08-08T07:32:15;20.70;94.30
47310;DHT22;33046;52.270;6.832;2023-08-08T07:34:23;20.70;93.80
47310;DHT22;33046;52.270;6.832;2023-08-08T07:36:30;20.80;93.70
47310;DHT22;33046;52.270;6.832;2023-08-08T07:38:37;21.00;93.60
47310;DHT22;33046;52.270;6.832;2023-08-08T07:40:44;21.00;93.50
47310;DHT22;33046;52.270;6.832;2023-08-08T07:42:52;20.90;93.20
47310;DHT22;33046;52.270;6.832;2023-08-08T07:44:59;21.00;93.00
47310;DHT22;33046;52.270;6.832;2023-08-08T07:47:06;21.00;93.20
47310;DHT22;33046;52.270;6.832;2023-08-08T07:49:13;20.90;93.10
47310;DHT22;33046;52.270;6.832;2023-08-08T07:51:21;20.80;93.00
47310;DHT22;33046;52.270;6.832;2023-08-08T07:53:28;20.80;92.60
47310;DHT22;33046;52.270;6.832;2023-08-08T07:55:35;20.90;92.70
47310;DHT22;33046;52.270;6.832;2023-08-08T07:57:42;20.80;92.90
47310;DHT22;33046;52.270;6.832;2023-08-08T07:59:49;20.80;92.70
47310;DHT22;33046;52.270;6.832;2023-08-08T08:01:56;20.70;92.20
47310;DHT22;33046;52.270;6.832;2023-08-08T08:04:03;20.70;91.90
47310;DHT22;33046;52.270;6.832;2023-08-08T08:06:10;20.70;92.10
47310;DHT22;33046;52.270;6.832;2023-08-08T08:08:18;20.70;91.70
47310;DHT22;33046;52.270;6.832;2023-08-08T08:10:25;20.60;91.60
47310;DHT22;33046;52.270;6.832;2023-08-08T08:12:32;20.50;91.50
47310;DHT22;33046;52.270;6.832;2023-08-08T08:14:39;20.50;92.00
47310;DHT22;33046;52.270;6.832;2023-08-08T08:16:46;20.50;92.10
47310;DHT22;33046;52.270;6.832;2023-08-08T08:18:53;20.50;91.90
47310;DHT22;33046;52.270;6.832;2023-08-08T08:20:59;20.50;91.40
47310;DHT22;33046;52.270;6.832;2023-08-08T08:23:06;20.50;91.50
47310;DHT22;33046;52.270;6.832;2023-08-08T08:25:15;20.50;91.50
47310;DHT22;33046;52.270;6.832;2023-08-08T08:27:22;20.60;91.90
47310;DHT22;33046;52.270;6.832;2023-08-08T08:29:28;20.60;91.70
47310;DHT22;33046;52.270;6.832;2023-08-08T08:31:35;20.60;91.60
47310;DHT22;33046;52.270;6.832;2023-08-08T08:33:42;20.70;91.80
47310;DHT22;33046;52.270;6.832;2023-08-08T08:35:49;20.60;91.40
47310;DHT22;33046;52.270;6.832;2023-08-08T08:37:56;20.60;90.70
47310;DHT22;33046;52.270;6.832;2023-08-08T08:40:03;20.50;91.00
47310;DHT22;33046;52.270;6.832;2023-08-08T08:42:13;20.50;90.80
47310;DHT22;33046;52.270;6.832;2023-08-08T08:44:22;20.50;90.60
47310;DHT22;33046;52.270;6.832;2023-08-08T08:46:30;20.50;90.90
47310;DHT22;33046;52.270;6.832;2023-08-08T08:48:37;20.50;90.50
47310;DHT22;33046;52.270;6.832;2023-08-08T08:50:45;20.60;90.70
47310;DHT22;33046;52.270;6.832;2023-08-08T08:52:54;20.70;91.20
47310;DHT22;33046;52.270;6.832;2023-08-08T08:55:02;20.70;90.90
47310;DHT22;33046;52.270;6.832;2023-08-08T08:57:11;20.70;90.00
47310;DHT22;33046;52.270;6.832;2023-08-08T08:59:18;20.80;90.40
47310;DHT22;33046;52.270;6.832;2023-08-08T09:01:26;20.80;90.30
47310;DHT22;33046;52.270;6.832;2023-08-08T09:03:32;20.80;90.10
47310;DHT22;33046;52.270;6.832;2023-08-08T09:05:41;20.80;90.10
47310;DHT22;33046;52.270;6.832;2023-08-08T09:07:48;20.80;90.20
47310;DHT22;33046;52.270;6.832;2023-08-08T09:09:55;20.80;90.50
47310;DHT22;33046;52.270;6.832;2023-08-08T09:12:03;20.90;90.60
47310;DHT22;33046;52.270;6.832;2023-08-08T09:14:17;20.90;90.10
47310;DHT22;33046;52.270;6.832;2023-08-08T09:16:24;20.90;89.70
47310;DHT22;33046;52.270;6.832;2023-08-08T09:18:31;20.90;89.10
47310;DHT22;33046;52.270;6.832;2023-08-08T09:20:38;21.00;90.10
47310;DHT22;33046;52.270;6.832;2023-08-08T09:22:45;21.00;87.70
47310;DHT22;33046;52.270;6.832;2023-08-08T09:24:52;21.00;87.50
47310;DHT22;33046;52.270;6.832;2023-08-08T09:27:00;21.10;87.20
47310;DHT22;33046;52.270;6.832;2023-08-08T09:29:07;21.10;87.80
47310;DHT22;33046;52.270;6.832;2023-08-08T09:31:16;21.10;87.30
47310;DHT22;33046;52.270;6.832;2023-08-08T09:33:23;21.20;88.30
47310;DHT22;33046;52.270;6.832;2023-08-08T09:35:30;21.20;86.70
47310;DHT22;33046;52.270;6.832;2023-08-08T09:37:37;21.20;86.50
47310;DHT22;33046;52.270;6.832;2023-08-08T09:39:44;21.10;86.60
47310;DHT22;33046;52.270;6.832;2023-08-08T09:41:51;21.10;86.90
47310;DHT22;33046;52.270;6.832;2023-08-08T09:43:59;21.10;86.70
47310;DHT22;33046;52.270;6.832;2023-08-08T09:46:08;21.20;87.10
47310;DHT22;33046;52.270;6.832;2023-08-08T09:48:16;21.20;86.80
47310;DHT22;33046;52.270;6.832;2023-08-08T09:50:24;21.10;86.10
47310;DHT22;33046;52.270;6.832;2023-08-08T09:52:33;21.10;87.30
47310;DHT22;33046;52.270;6.832;2023-08-08T09:54:40;21.20;87.10
47310;DHT22;33046;52.270;6.832;2023-08-08T09:56:48;21.30;87.30
47310;DHT22;33046;52.270;6.832;2023-08-08T09:58:57;21.30;86.30
47310;DHT22;33046;52.270;6.832;2023-08-08T10:01:04;21.40;86.80
47310;DHT22;33046;52.270;6.832;2023-08-08T10:03:12;21.40;86.90
47310;DHT22;33046;52.270;6.832;2023-08-08T10:05:21;21.40;86.40
47310;DHT22;33046;52.270;6.832;2023-08-08T10:07:28;21.30;85.70
47310;DHT22;33046;52.270;6.832;2023-08-08T10:09:35;21.20;87.20
47310;DHT22;33046;52.270;6.832;2023-08-08T10:11:42;21.20;89.40
47310;DHT22;33046;52.270;6.832;2023-08-08T10:13:50;21.10;89.80
47310;DHT22;33046;52.270;6.832;2023-08-08T10:16:04;21.10;90.90
47310;DHT22;33046;52.270;6.832;2023-08-08T10:18:14;21.00;91.60
47310;DHT22;33046;52.270;6.832;2023-08-08T10:20:23;20.90;91.00
47310;DHT22;33046;52.270;6.832;2023-08-08T10:22:31;21.00;91.10
47310;DHT22;33046;52.270;6.832;2023-08-08T10:24:38;21.10;91.30
47310;DHT22;33046;52.270;6.832;2023-08-08T10:26:52;21.10;91.30
47310;DHT22;33046;52.270;6.832;2023-08-08T10:29:00;21.10;91.60
47310;DHT22;33046;52.270;6.832;2023-08-08T10:31:16;21.10;90.90
47310;DHT22;33046;52.270;6.832;2023-08-08T10:33:26;21.10;91.20
47310;DHT22;33046;52.270;6.832;2023-08-08T10:35:37;21.10;91.50
47310;DHT22;33046;52.270;6.832;2023-08-08T10:37:52;21.10;91.10
47310;DHT22;33046;52.270;6.832;2023-08-08T10:40:00;21.00;91.10
47310;DHT22;33046;52.270;6.832;2023-08-08T10:42:07;21.10;90.70
47310;DHT22;33046;52.270;6.832;2023-08-08T10:44:21;21.10;90.90
47310;DHT22;33046;52.270;6.832;2023-08-08T10:46:32;21.10;91.50
47310;DHT22;33046;52.270;6.832;2023-08-08T10:48:49;21.20;91.10
47310;DHT22;33046;52.270;6.832;2023-08-08T10:50:59;21.10;91.20
47310;DHT22;33046;52.270;6.832;2023-08-08T10:53:08;21.20;92.20
47310;DHT22;33046;52.270;6.832;2023-08-08T10:55:19;21.10;90.90
47310;DHT22;33046;52.270;6.832;2023-08-08T10:57:27;21.10;91.30
47310;DHT22;33046;52.270;6.832;2023-08-08T10:59:37;21.10;90.50
47310;DHT22;33046;52.270;6.832;2023-08-08T11:01:48;21.20;90.90
47310;DHT22;33046;52.270;6.832;2023-08-08T11:03:57;21.10;91.10
47310;DHT22;33046;52.270;6.832;2023-08-08T11:06:06;21.20;90.90
47310;DHT22;33046;52.270;6.832;2023-08-08T11:08:13;21.20;90.00
47310;DHT22;33046;52.270;6.832;2023-08-08T11:10:21;21.20;90.30
47310;DHT22;33046;52.270;6.832;2023-08-08T11:12:28;21.20;90.30
47310;DHT22;33046;52.270;6.832;2023-08-08T11:14:35;21.10;87.60
47310;DHT22;33046;52.270;6.832;2023-08-08T11:16:43;21.00;87.60
47310;DHT22;33046;52.270;6.832;2023-08-08T11:18:55;21.00;89.50
47310;DHT22;33046;52.270;6.832;2023-08-08T11:21:09;20.90;89.30
47310;DHT22;33046;52.270;6.832;2023-08-08T11:23:22;20.70;91.10
47310;DHT22;33046;52.270;6.832;2023-08-08T11:25:30;20.60;92.30
47310;DHT22;33046;52.270;6.832;2023-08-08T11:27:37;20.60;92.80
47310;DHT22;33046;52.270;6.832;2023-08-08T11:29:49;20.60;92.60
47310;DHT22;33046;52.270;6.832;2023-08-08T11:31:56;20.70;92.80
47310;DHT22;33046;52.270;6.832;2023-08-08T11:34:04;20.70;93.40
47310;DHT22;33046;52.270;6.832;2023-08-08T11:36:13;20.60;93.30
47310;DHT22;33046;52.270;6.832;2023-08-08T11:38:20;20.70;93.30
47310;DHT22;33046;52.270;6.832;2023-08-08T11:40:28;20.60;93.20
47310;DHT22;33046;52.270;6.832;2023-08-08T11:42:35;20.50;93.60
47310;DHT22;33046;52.270;6.832;2023-08-08T11:44:42;20.60;94.10
47310;DHT22;33046;52.270;6.832;2023-08-08T11:46:49;20.60;93.90
47310;DHT22;33046;52.270;6.832;2023-08-08T11:49:02;20.70;93.90
47310;DHT22;33046;52.270;6.832;2023-08-08T11:51:09;20.70;93.80
47310;DHT22;33046;52.270;6.832;2023-08-08T11:53:19;20.70;93.70
47310;DHT22;33046;52.270;6.832;2023-08-08T11:55:29;20.80;94.50
47310;DHT22;33046;52.270;6.832;2023-08-08T11:57:37;20.70;93.80
47310;DHT22;33046;52.270;6.832;2023-08-08T11:59:44;20.80;93.90
47310;DHT22;33046;52.270;6.832;2023-08-08T12:01:51;20.80;94.60
47310;DHT22;33046;52.270;6.832;2023-08-08T12:03:58;20.80;94.10
47310;DHT22;33046;52.270;6.832;2023-08-08T12:06:11;20.80;93.10
47310;DHT22;33046;52.270;6.832;2023-08-08T12:08:20;20.80;92.20
47310;DHT22;33046;52.270;6.832;2023-08-08T12:10:28;20.90;92.40
47310;DHT22;33046;52.270;6.832;2023-08-08T12:12:36;20.90;92.50
47310;DHT22;33046;52.270;6.832;2023-08-08T12:14:45;21.00;90.60
47310;DHT22;33046;52.270;6.832;2023-08-08T12:16:56;21.00;90.40
47310;DHT22;33046;52.270;6.832;2023-08-08T12:19:06;21.00;90.20
47310;DHT22;33046;52.270;6.832;2023-08-08T12:21:13;21.00;89.90
47310;DHT22;33046;52.270;6.832;2023-08-08T12:23:21;21.10;88.20
47310;DHT22;33046;52.270;6.832;2023-08-08T12:25:28;21.10;88.30
47310;DHT22;33046;52.270;6.832;2023-08-08T12:27:35;21.10;87.20
47310;DHT22;33046;52.270;6.832;2023-08-08T12:29:42;21.10;86.70
47310;DHT22;33046;52.270;6.832;2023-08-08T12:31:49;21.00;87.70
47310;DHT22;33046;52.270;6.832;2023-08-08T12:33:56;21.10;88.20
47310;DHT22;33046;52.270;6.832;2023-08-08T12:36:03;21.10;87.70
47310;DHT22;33046;52.270;6.832;2023-08-08T12:38:10;21.20;86.60
47310;DHT22;33046;52.270;6.832;2023-08-08T12:40:18;21.20;85.90
47310;DHT22;33046;52.270;6.832;2023-08-08T12:42:25;21.30;85.30
47310;DHT22;33046;52.270;6.832;2023-08-08T12:44:32;21.30;85.50
47310;DHT22;33046;52.270;6.832;2023-08-08T12:46:38;21.40;85.50
47310;DHT22;33046;52.270;6.832;2023-08-08T12:48:45;21.40;87.10
47310;DHT22;33046;52.270;6.832;2023-08-08T12:50:52;21.40;84.40
47310;DHT22;33046;52.270;6.832;2023-08-08T12:52:59;21.40;83.00
47310;DHT22;33046;52.270;6.832;2023-08-08T12:55:07;21.40;83.30
47310;DHT22;33046;52.270;6.832;2023-08-08T12:57:15;21.40;83.30
47310;DHT22;33046;52.270;6.832;2023-08-08T12:59:22;21.40;83.10
47310;DHT22;33046;52.270;6.832;2023-08-08T13:01:29;21.40;82.10
47310;DHT22;33046;52.270;6.832;2023-08-08T13:03:36;21.50;83.00
47310;DHT22;33046;52.270;6.832;2023-08-08T13:05:43;21.60;80.90
47310;DHT22;33046;52.270;6.832;2023-08-08T13:07:50;21.70;81.10
47310;DHT22;33046;52.270;6.832;2023-08-08T13:09:57;21.80;80.70
47310;DHT22;33046;52.270;6.832;2023-08-08T13:12:04;22.00;80.60
47310;DHT22;33046;52.270;6.832;2023-08-08T13:14:12;22.10;79.60
47310;DHT22;33046;52.270;6.832;2023-08-08T13:16:19;22.10;80.20
47310;DHT22;33046;52.270;6.832;2023-08-08T13:18:26;22.00;78.50
47310;DHT22;33046;52.270;6.832;2023-08-08T13:20:33;22.10;78.70
47310;DHT22;33046;52.270;6.832;2023-08-08T13:22:40;22.10;80.00
47310;DHT22;33046;52.270;6.832;2023-08-08T13:24:46;22.20;77.50
47310;DHT22;33046;52.270;6.832;2023-08-08T13:26:53;22.20;78.20